PWSweather.com
Personal Weather Stations
Station Observations
CALONGE
CalongeES 17251

CalongeES 17251

Lat: 41.85972222, Lon: 3.077777778

Elevation: 16

Station Type: Oregon WMR928N

www.calonge-meteoweb.com

High Low Average
Temperature 78.3°F25.7°C 59.9°F15.5°C 70.8°F21.6°C
Dew Point 62.2°F16.8°C 54.2°F12.3°C 58.9°F14.9°C
Winds 14.9 mph 24.0 kmh Calm Calm 6.0 mph SE9.7 kmh SE
Wind Gusts 24.0 mph38.6 kmh -- 9.0 mph14.5 kmh
Humidity 85% 48% 67%
Pressure 29.89 in1012.2 mb 29.83 in1010.2 mb -
Precipitation 0.00 in0.0 mm - -
Hour Temp Dew Point Humidity Winds Wind Gusts Pressure Precip Precip Rate Daily Precip Total
12:00 AM 65.3°F18.5°C 55.7°F13.2°C 71% Calm Calm -- 29.89 in1012.2 mb 0.00 in0.0 mm 0.00 in0.0 mm 0.00 in0.0 mm
12:15 AM 65.1°F18.4°C 56.6°F13.7°C 74% Calm Calm 4.7 mph7.6 kmh 29.89 in1012.2 mb 0.00 in0.0 mm 0.00 in0.0 mm 0.00 in0.0 mm
12:30 AM 64.8°F18.2°C 56.6°F13.7°C 75% Calm Calm 4.1 mph6.6 kmh 29.89 in1012.2 mb 0.00 in0.0 mm 0.00 in0.0 mm 0.00 in0.0 mm
12:45 AM 63.3°F17.4°C 54.9°F12.7°C 74% Calm Calm -- 29.89 in1012.2 mb 0.00 in0.0 mm 0.00 in0.0 mm 0.00 in0.0 mm
01:00 AM 62.6°F17.0°C 54.2°F12.3°C 74% 4.1 mph SE6.6 kmh SE 5.3 mph8.5 kmh 29.89 in1012.2 mb 0.00 in0.0 mm 0.00 in0.0 mm 0.00 in0.0 mm
01:15 AM 63.5°F17.5°C 57.9°F14.4°C 82% Calm Calm 5.3 mph8.5 kmh 29.89 in1012.2 mb 0.00 in0.0 mm 0.00 in0.0 mm 0.00 in0.0 mm
01:30 AM 64.2°F17.9°C 59.6°F15.3°C 85% 4.1 mph SE6.6 kmh SE 7.0 mph11.3 kmh 29.89 in1012.2 mb 0.00 in0.0 mm 0.00 in0.0 mm 0.00 in0.0 mm
01:45 AM 64.2°F17.9°C 58.9°F14.9°C 83% Calm Calm 6.4 mph10.3 kmh 29.86 in1011.2 mb 0.00 in0.0 mm 0.00 in0.0 mm 0.00 in0.0 mm
02:00 AM 64.2°F17.9°C 58.9°F14.9°C 83% Calm Calm 4.7 mph7.6 kmh 29.86 in1011.2 mb 0.00 in0.0 mm 0.00 in0.0 mm 0.00 in0.0 mm
02:15 AM 62.6°F17.0°C 56.3°F13.5°C 80% Calm Calm -- 29.86 in1011.2 mb 0.00 in0.0 mm 0.00 in0.0 mm 0.00 in0.0 mm
02:30 AM 61.5°F16.4°C 54.9°F12.7°C 79% Calm Calm -- 29.86 in1011.2 mb 0.00 in0.0 mm 0.00 in0.0 mm 0.00 in0.0 mm
02:45 AM 60.6°F15.9°C 54.4°F12.4°C 80% Calm Calm -- 29.86 in1011.2 mb 0.00 in0.0 mm 0.00 in0.0 mm 0.00 in0.0 mm
03:00 AM 60.1°F15.6°C 54.2°F12.3°C 81% Calm Calm -- 29.86 in1011.2 mb 0.00 in0.0 mm 0.00 in0.0 mm 0.00 in0.0 mm
03:15 AM 59.9°F15.5°C 54.7°F12.6°C 83% 6.4 mph E10.3 kmh E 6.4 mph10.3 kmh 29.86 in1011.2 mb 0.00 in0.0 mm 0.00 in0.0 mm 0.00 in0.0 mm
03:30 AM 62.4°F16.9°C 57.2°F14.0°C 83% 7.6 mph SE12.2 kmh SE 10.0 mph16.1 kmh 29.86 in1011.2 mb 0.00 in0.0 mm 0.00 in0.0 mm 0.00 in0.0 mm
03:45 AM 63.7°F17.6°C 57.4°F14.1°C 80% 6.4 mph ESE10.3 kmh ESE 10.0 mph16.1 kmh 29.86 in1011.2 mb 0.00 in0.0 mm 0.00 in0.0 mm 0.00 in0.0 mm
04:00 AM 64.6°F18.1°C 56.8°F13.8°C 76% 5.9 mph ESE9.5 kmh ESE 8.2 mph13.2 kmh 29.86 in1011.2 mb 0.00 in0.0 mm 0.00 in0.0 mm 0.00 in0.0 mm
04:15 AM 65.1°F18.4°C 57.4°F14.1°C 76% 7.6 mph E12.2 kmh E 8.8 mph14.2 kmh 29.83 in1010.2 mb 0.00 in0.0 mm 0.00 in0.0 mm 0.00 in0.0 mm
04:30 AM 65.7°F18.7°C 55.6°F13.1°C 70% 7.6 mph ESE12.2 kmh ESE 8.2 mph13.2 kmh 29.86 in1011.2 mb 0.00 in0.0 mm 0.00 in0.0 mm 0.00 in0.0 mm
04:45 AM 66.0°F18.9°C 58.2°F14.6°C 76% 2.9 mph S4.7 kmh S 8.2 mph13.2 kmh 29.83 in1010.2 mb 0.00 in0.0 mm 0.00 in0.0 mm 0.00 in0.0 mm
05:00 AM 66.2°F19.0°C 59.5°F15.3°C 79% Calm Calm -- 29.83 in1010.2 mb 0.00 in0.0 mm 0.00 in0.0 mm 0.00 in0.0 mm
05:15 AM 66.0°F18.9°C 59.7°F15.4°C 80% Calm Calm -- 29.83 in1010.2 mb 0.00 in0.0 mm 0.00 in0.0 mm 0.00 in0.0 mm
05:30 AM 66.0°F18.9°C 59.3°F15.2°C 79% Calm Calm -- 29.83 in1010.2 mb 0.00 in0.0 mm 0.00 in0.0 mm 0.00 in0.0 mm
05:45 AM 66.4°F19.1°C 59.3°F15.2°C 78% 9.4 mph SE15.1 kmh SE 11.4 mph18.3 kmh 29.86 in1011.2 mb 0.00 in0.0 mm 0.00 in0.0 mm 0.00 in0.0 mm
06:00 AM 66.9°F19.4°C 58.0°F14.4°C 73% 5.3 mph S8.5 kmh S 10.5 mph16.9 kmh 29.86 in1011.2 mb 0.00 in0.0 mm 0.00 in0.0 mm 0.00 in0.0 mm
06:15 AM 67.1°F19.5°C 57.8°F14.3°C 72% 5.9 mph SSE9.5 kmh SSE 7.6 mph12.2 kmh 29.86 in1011.2 mb 0.00 in0.0 mm 0.00 in0.0 mm 0.00 in0.0 mm
06:30 AM 67.6°F19.8°C 57.5°F14.2°C 70% Calm Calm 7.6 mph12.2 kmh 29.86 in1011.2 mb 0.00 in0.0 mm 0.00 in0.0 mm 0.00 in0.0 mm
06:45 AM 68.0°F20.0°C 57.4°F14.1°C 69% 4.7 mph SW7.6 kmh SW 8.2 mph13.2 kmh 29.86 in1011.2 mb 0.00 in0.0 mm 0.00 in0.0 mm 0.00 in0.0 mm
07:00 AM 68.4°F20.2°C 57.8°F14.3°C 69% 5.3 mph SSW8.5 kmh SSW 7.0 mph11.3 kmh 29.86 in1011.2 mb 0.00 in0.0 mm 0.00 in0.0 mm 0.00 in0.0 mm
07:15 AM 68.7°F20.4°C 56.9°F13.8°C 66% 8.8 mph S14.2 kmh S 10.8 mph17.4 kmh 29.86 in1011.2 mb 0.00 in0.0 mm 0.00 in0.0 mm 0.00 in0.0 mm
07:30 AM 69.3°F20.7°C 57.0°F13.9°C 65% 7.0 mph S11.3 kmh S 9.4 mph15.1 kmh 29.86 in1011.2 mb 0.00 in0.0 mm 0.00 in0.0 mm 0.00 in0.0 mm
07:45 AM 69.6°F20.9°C 57.3°F14.1°C 65% 7.0 mph S11.3 kmh S 8.2 mph13.2 kmh 29.89 in1012.2 mb 0.00 in0.0 mm 0.00 in0.0 mm 0.00 in0.0 mm
08:00 AM 70.2°F21.2°C 57.4°F14.1°C 64% 4.1 mph SSE6.6 kmh SSE 8.2 mph13.2 kmh 29.89 in1012.2 mb 0.00 in0.0 mm 0.00 in0.0 mm 0.00 in0.0 mm
08:15 AM 70.9°F21.6°C 58.1°F14.5°C 64% 4.7 mph S7.6 kmh S 10.0 mph16.1 kmh 29.89 in1012.2 mb 0.00 in0.0 mm 0.00 in0.0 mm 0.00 in0.0 mm
08:30 AM 71.2°F21.8°C 58.9°F14.9°C 65% Calm Calm 10.5 mph16.9 kmh 29.89 in1012.2 mb 0.00 in0.0 mm 0.00 in0.0 mm 0.00 in0.0 mm
08:45 AM 71.8°F22.1°C 58.5°F14.7°C 63% 6.4 mph S10.3 kmh S 8.2 mph13.2 kmh 29.89 in1012.2 mb 0.00 in0.0 mm 0.00 in0.0 mm 0.00 in0.0 mm
09:00 AM 72.7°F22.6°C 58.5°F14.7°C 61% 4.7 mph SW7.6 kmh SW 8.8 mph14.2 kmh 29.89 in1012.2 mb 0.00 in0.0 mm 0.00 in0.0 mm 0.00 in0.0 mm
09:15 AM 74.3°F23.5°C 59.5°F15.3°C 60% 7.6 mph SSW12.2 kmh SSW 10.8 mph17.4 kmh 29.89 in1012.2 mb 0.00 in0.0 mm 0.00 in0.0 mm 0.00 in0.0 mm
09:30 AM 75.4°F24.1°C 57.1°F13.9°C 53% 4.7 mph S7.6 kmh S 11.4 mph18.3 kmh 29.89 in1012.2 mb 0.00 in0.0 mm 0.00 in0.0 mm 0.00 in0.0 mm
09:45 AM 76.1°F24.5°C 58.8°F14.9°C 55% 9.4 mph SSE15.1 kmh SSE 13.8 mph22.2 kmh 29.89 in1012.2 mb 0.00 in0.0 mm 0.00 in0.0 mm 0.00 in0.0 mm
10:00 AM 75.9°F24.4°C 57.6°F14.2°C 53% 10.5 mph SE16.9 kmh SE 13.8 mph22.2 kmh 29.89 in1012.2 mb 0.00 in0.0 mm 0.00 in0.0 mm 0.00 in0.0 mm
10:15 AM 76.1°F24.5°C 58.2°F14.6°C 54% 10.8 mph SE17.4 kmh SE 13.8 mph22.2 kmh 29.89 in1012.2 mb 0.00 in0.0 mm 0.00 in0.0 mm 0.00 in0.0 mm
10:30 AM 76.8°F24.9°C 56.2°F13.4°C 49% 5.9 mph SSE9.5 kmh SSE 13.2 mph21.2 kmh 29.89 in1012.2 mb 0.00 in0.0 mm 0.00 in0.0 mm 0.00 in0.0 mm
10:45 AM 76.8°F24.9°C 57.3°F14.1°C 51% 10.5 mph SSE16.9 kmh SSE 13.8 mph22.2 kmh 29.89 in1012.2 mb 0.00 in0.0 mm 0.00 in0.0 mm 0.00 in0.0 mm
11:00 AM 77.0°F25.0°C 55.8°F13.2°C 48% 10.5 mph SE16.9 kmh SE 16.1 mph25.9 kmh 29.89 in1012.2 mb 0.00 in0.0 mm 0.00 in0.0 mm 0.00 in0.0 mm
11:15 AM 76.8°F24.9°C 55.6°F13.1°C 48% 13.8 mph SSE22.2 kmh SSE 14.4 mph23.2 kmh 29.89 in1012.2 mb 0.00 in0.0 mm 0.00 in0.0 mm 0.00 in0.0 mm
11:30 AM 76.5°F24.7°C 57.5°F14.2°C 52% 9.4 mph SE15.1 kmh SE 17.3 mph27.8 kmh 29.89 in1012.2 mb 0.00 in0.0 mm 0.00 in0.0 mm 0.00 in0.0 mm
11:45 AM 76.6°F24.8°C 58.7°F14.8°C 54% 10.0 mph SSE16.1 kmh SSE 16.7 mph26.9 kmh 29.89 in1012.2 mb 0.00 in0.0 mm 0.00 in0.0 mm 0.00 in0.0 mm
12:00 PM 77.0°F25.0°C 57.5°F14.2°C 51% 10.5 mph SSE16.9 kmh SSE 16.1 mph25.9 kmh 29.89 in1012.2 mb 0.00 in0.0 mm 0.00 in0.0 mm 0.00 in0.0 mm
12:15 PM 77.0°F25.0°C 59.6°F15.3°C 55% 12.0 mph SSE19.3 kmh SSE 13.8 mph22.2 kmh 29.89 in1012.2 mb 0.00 in0.0 mm 0.00 in0.0 mm 0.00 in0.0 mm
12:30 PM 76.6°F24.8°C 60.3°F15.7°C 57% 12.0 mph SSE19.3 kmh SSE 17.3 mph27.8 kmh 29.89 in1012.2 mb 0.00 in0.0 mm 0.00 in0.0 mm 0.00 in0.0 mm
12:45 PM 76.3°F24.6°C 60.9°F16.1°C 59% 10.0 mph S16.1 kmh S 12.6 mph20.3 kmh 29.89 in1012.2 mb 0.00 in0.0 mm 0.00 in0.0 mm 0.00 in0.0 mm
01:00 PM 76.6°F24.8°C 60.8°F16.0°C 58% 12.0 mph S19.3 kmh S 20.2 mph32.5 kmh 29.89 in1012.2 mb 0.00 in0.0 mm 0.00 in0.0 mm 0.00 in0.0 mm
01:15 PM 77.0°F25.0°C 59.1°F15.1°C 54% 12.0 mph S19.3 kmh S 20.2 mph32.5 kmh 29.89 in1012.2 mb 0.00 in0.0 mm 0.00 in0.0 mm 0.00 in0.0 mm
01:30 PM 77.2°F25.1°C 58.2°F14.6°C 52% 8.8 mph S14.2 kmh S 22.9 mph36.9 kmh 29.89 in1012.2 mb 0.00 in0.0 mm 0.00 in0.0 mm 0.00 in0.0 mm
01:45 PM 77.5°F25.3°C 59.1°F15.1°C 53% 14.9 mph S24.0 kmh S 24.0 mph38.6 kmh 29.89 in1012.2 mb 0.00 in0.0 mm 0.00 in0.0 mm 0.00 in0.0 mm
02:00 PM 77.2°F25.1°C 59.2°F15.1°C 54% 12.0 mph SSE19.3 kmh SSE 20.8 mph33.5 kmh 29.89 in1012.2 mb 0.00 in0.0 mm 0.00 in0.0 mm 0.00 in0.0 mm
02:15 PM 77.4°F25.2°C 59.4°F15.2°C 54% 10.0 mph SSW16.1 kmh SSW 14.4 mph23.2 kmh 29.89 in1012.2 mb 0.00 in0.0 mm 0.00 in0.0 mm 0.00 in0.0 mm
02:30 PM 77.7°F25.4°C 58.1°F14.5°C 51% 10.8 mph SW17.4 kmh SW 14.4 mph23.2 kmh 29.86 in1011.2 mb 0.00 in0.0 mm 0.00 in0.0 mm 0.00 in0.0 mm
02:45 PM 77.0°F25.0°C 59.1°F15.1°C 54% 10.0 mph S16.1 kmh S 14.4 mph23.2 kmh 29.86 in1011.2 mb 0.00 in0.0 mm 0.00 in0.0 mm 0.00 in0.0 mm
03:00 PM 77.2°F25.1°C 59.2°F15.1°C 54% 5.3 mph SW8.5 kmh SW 11.4 mph18.3 kmh 29.86 in1011.2 mb 0.00 in0.0 mm 0.00 in0.0 mm 0.00 in0.0 mm
03:15 PM 77.4°F25.2°C 57.3°F14.1°C 50% 8.2 mph SW13.2 kmh SW 16.1 mph25.9 kmh 29.86 in1011.2 mb 0.00 in0.0 mm 0.00 in0.0 mm 0.00 in0.0 mm
03:30 PM 78.3°F25.7°C 58.6°F14.8°C 51% 10.5 mph S16.9 kmh S 17.3 mph27.8 kmh 29.86 in1011.2 mb 0.00 in0.0 mm 0.00 in0.0 mm 0.00 in0.0 mm
03:45 PM 78.1°F25.6°C 58.5°F14.7°C 51% 9.4 mph SSE15.1 kmh SSE 10.5 mph16.9 kmh 29.86 in1011.2 mb 0.00 in0.0 mm 0.00 in0.0 mm 0.00 in0.0 mm
04:00 PM 77.2°F25.1°C 60.8°F16.0°C 57% 7.6 mph S12.2 kmh S 14.4 mph23.2 kmh 29.86 in1011.2 mb 0.00 in0.0 mm 0.00 in0.0 mm 0.00 in0.0 mm
04:15 PM 77.2°F25.1°C 61.3°F16.3°C 58% 7.6 mph SSE12.2 kmh SSE 13.8 mph22.2 kmh 29.86 in1011.2 mb 0.00 in0.0 mm 0.00 in0.0 mm 0.00 in0.0 mm
04:30 PM 76.5°F24.7°C 61.1°F16.2°C 59% 12.6 mph SSE20.3 kmh SSE 20.2 mph32.5 kmh 29.86 in1011.2 mb 0.00 in0.0 mm 0.00 in0.0 mm 0.00 in0.0 mm
04:45 PM 76.3°F24.6°C 60.9°F16.1°C 59% 7.6 mph SW12.2 kmh SW 13.2 mph21.2 kmh 29.86 in1011.2 mb 0.00 in0.0 mm 0.00 in0.0 mm 0.00 in0.0 mm
05:00 PM 76.1°F24.5°C 61.7°F16.5°C 61% 6.4 mph S10.3 kmh S 16.1 mph25.9 kmh 29.86 in1011.2 mb 0.00 in0.0 mm 0.00 in0.0 mm 0.00 in0.0 mm
05:15 PM 75.6°F24.2°C 62.1°F16.7°C 63% 11.4 mph S18.3 kmh S 13.8 mph22.2 kmh 29.86 in1011.2 mb 0.00 in0.0 mm 0.00 in0.0 mm 0.00 in0.0 mm
05:30 PM 74.7°F23.7°C 61.7°F16.5°C 64% 12.6 mph S20.3 kmh S 13.2 mph21.2 kmh 29.86 in1011.2 mb 0.00 in0.0 mm 0.00 in0.0 mm 0.00 in0.0 mm
05:45 PM 75.0°F23.9°C 61.6°F16.4°C 63% 7.0 mph S11.3 kmh S 13.2 mph21.2 kmh 29.86 in1011.2 mb 0.00 in0.0 mm 0.00 in0.0 mm 0.00 in0.0 mm
06:00 PM 75.4°F24.1°C 61.5°F16.4°C 62% 8.2 mph SSE13.2 kmh SSE 10.5 mph16.9 kmh 29.86 in1011.2 mb 0.00 in0.0 mm 0.00 in0.0 mm 0.00 in0.0 mm
06:15 PM 74.8°F23.8°C 60.9°F16.1°C 62% 8.2 mph S13.2 kmh S 14.4 mph23.2 kmh 29.86 in1011.2 mb 0.00 in0.0 mm 0.00 in0.0 mm 0.00 in0.0 mm
06:30 PM 74.3°F23.5°C 61.3°F16.3°C 64% 7.0 mph SSE11.3 kmh SSE 11.4 mph18.3 kmh 29.86 in1011.2 mb 0.00 in0.0 mm 0.00 in0.0 mm 0.00 in0.0 mm
06:45 PM 73.9°F23.3°C 61.0°F16.1°C 64% 7.6 mph SSE12.2 kmh SSE 11.4 mph18.3 kmh 29.86 in1011.2 mb 0.00 in0.0 mm 0.00 in0.0 mm 0.00 in0.0 mm
07:00 PM 74.1°F23.4°C 61.2°F16.2°C 64% 7.0 mph SSW11.3 kmh SSW 5.3 mph8.5 kmh 29.86 in1011.2 mb 0.00 in0.0 mm 0.00 in0.0 mm 0.00 in0.0 mm
07:15 PM 73.6°F23.1°C 61.5°F16.4°C 66% 6.4 mph SW10.3 kmh SW 8.2 mph13.2 kmh 29.86 in1011.2 mb 0.00 in0.0 mm 0.00 in0.0 mm 0.00 in0.0 mm
07:30 PM 73.0°F22.8°C 61.4°F16.3°C 67% 8.2 mph SSW13.2 kmh SSW 10.5 mph16.9 kmh 29.86 in1011.2 mb 0.00 in0.0 mm 0.00 in0.0 mm 0.00 in0.0 mm
07:45 PM 72.5°F22.5°C 61.7°F16.5°C 69% 7.0 mph S11.3 kmh S 8.2 mph13.2 kmh 29.86 in1011.2 mb 0.00 in0.0 mm 0.00 in0.0 mm 0.00 in0.0 mm
08:00 PM 72.0°F22.2°C 62.0°F16.7°C 71% Calm Calm 7.6 mph12.2 kmh 29.86 in1011.2 mb 0.00 in0.0 mm 0.00 in0.0 mm 0.00 in0.0 mm
08:15 PM 71.1°F21.7°C 62.0°F16.7°C 73% Calm Calm 7.6 mph12.2 kmh 29.86 in1011.2 mb 0.00 in0.0 mm 0.00 in0.0 mm 0.00 in0.0 mm
08:30 PM 70.5°F21.4°C 62.2°F16.8°C 75% 4.1 mph S6.6 kmh S 5.9 mph9.5 kmh 29.86 in1011.2 mb 0.00 in0.0 mm 0.00 in0.0 mm 0.00 in0.0 mm
08:45 PM 70.0°F21.1°C 62.1°F16.7°C 76% Calm Calm -- 29.86 in1011.2 mb 0.00 in0.0 mm 0.00 in0.0 mm 0.00 in0.0 mm
09:00 PM 69.6°F20.9°C 62.1°F16.7°C 77% Calm Calm -- 29.89 in1012.2 mb 0.00 in0.0 mm 0.00 in0.0 mm 0.00 in0.0 mm
09:15 PM 69.3°F20.7°C 61.7°F16.5°C 77% Calm Calm -- 29.89 in1012.2 mb 0.00 in0.0 mm 0.00 in0.0 mm 0.00 in0.0 mm
09:30 PM 68.7°F20.4°C 61.6°F16.4°C 78% Calm Calm -- 29.89 in1012.2 mb 0.00 in0.0 mm 0.00 in0.0 mm 0.00 in0.0 mm
09:45 PM 68.4°F20.2°C 61.2°F16.2°C 78% Calm Calm -- 29.89 in1012.2 mb 0.00 in0.0 mm 0.00 in0.0 mm 0.00 in0.0 mm
10:00 PM 68.2°F20.1°C 61.4°F16.3°C 79% Calm Calm 4.7 mph7.6 kmh 29.89 in1012.2 mb 0.00 in0.0 mm 0.00 in0.0 mm 0.00 in0.0 mm
10:15 PM 67.6°F19.8°C 60.9°F16.1°C 79% Calm Calm -- 29.89 in1012.2 mb 0.00 in0.0 mm 0.00 in0.0 mm 0.00 in0.0 mm
10:30 PM 66.6°F19.2°C 60.5°F15.8°C 81% Calm Calm 2.9 mph4.7 kmh 29.89 in1012.2 mb 0.00 in0.0 mm 0.00 in0.0 mm 0.00 in0.0 mm
10:45 PM 66.2°F19.0°C 59.8°F15.4°C 80% Calm Calm -- 29.89 in1012.2 mb 0.00 in0.0 mm 0.00 in0.0 mm 0.00 in0.0 mm
11:00 PM 65.7°F18.7°C 59.7°F15.4°C 81% Calm Calm -- 29.89 in1012.2 mb 0.00 in0.0 mm 0.00 in0.0 mm 0.00 in0.0 mm
11:15 PM 65.1°F18.4°C 59.8°F15.4°C 83% Calm Calm -- 29.89 in1012.2 mb 0.00 in0.0 mm 0.00 in0.0 mm 0.00 in0.0 mm
11:30 PM 64.6°F18.1°C 59.3°F15.2°C 83% Calm Calm -- 29.89 in1012.2 mb 0.00 in0.0 mm 0.00 in0.0 mm 0.00 in0.0 mm
11:45 PM 64.2°F17.9°C 59.3°F15.2°C 84% Calm Calm -- 29.89 in1012.2 mb 0.00 in0.0 mm 0.00 in0.0 mm 0.00 in0.0 mm